메인 페이지
METAR-TAF:

METAR-TAF

공항 :

라세레나, 칠레

위도: 29-54S, 경도: 071-12W, 고도: 142m

현재 날씨관측

예보는 1 시간 3분 전, 02:00시(UTC)에 발표되었습니다.
북서5kt
온도 17°C
습도 88%
기압 1015 hPa
시정 10km 이상
1500m 미만 상공 구름 및 적란운 없음

METAR: SCSE 030200Z AUTO 32005KT CAVOK 17/15 Q1015

시각: 00:03 (03:03 UTC)

예보

예보는 5 시간 3분 전, 22:00시(UTC)에 발표되었습니다.
예보 대상 시간: 03일 00시부터 03일 24시까지 (UTC)
서북서12kt
시정 10km 이상
고도 2000ft 상공 구름 조금
전환 중
03일 00시부터 03일 02시까지 (UTC)
고도 1500ft 상공 구름 많음
전환 중
03일 03시부터 03일 05시까지 (UTC)
북서4kt
시정: 8000m
고도 500ft 상공 구름 많음
고도 1200ft 상공 흐림
일시적
03일 06시부터 03일 12시까지 (UTC)
여러 방향의 바람 2kt
시정: 6000m
고도 500ft 상공 흐림
약한이슬비
전환 중
03일 14시부터 03일 16시까지 (UTC)
서북서12kt
고도 1500ft 상공 구름 보통
고도 2500ft 상공 구름 많음
전환 중
03일 16시부터 03일 18시까지 (UTC)
고도 2000ft 상공 구름 보통

TAF: SCSE 022200Z 0300/0324 29012KT 9999 FEW020 TX20/0319Z TN17/0310Z BECMG 0300/0302 BKN015 BECMG 0303/0305 32004KT 8000 BKN005 OVC012 TEMPO 0306/0312 VRB02KT 6000 -DZ OVC005 BECMG 0314/0316 29012KT SCT015 BKN025 BECMG 0316/0318 SCT020

4,000개 이상의 공항 관측 자료 및 예보 (METAR 및 TAF 보고).

지도상에서 검색 가능한 기상관측소가 노란 점과 빨간 점으로 표시되어 있습니다.

기상관측소 명을 보려면 표시 위로 마우스를 이동하세요.

날씨 관측과 예보를 보려면 클릭하세요.

지도 변경 : 확대하려면 엑스 표시가 있는 녹색 버튼, 축소하려면 빼기 표시가 있는 녹색 버튼, 다음 페이지의 지도를 보려면 녹색 화살표를 클릭하세요.


METAR-TAF: